Time;durP1;ratioP1;P1;durP2;ratioP2;P2;SDS_P1;SDS_P2;PMS_P1;PMS_P2;Temp;Humidity;BMP_temperature;BMP_pressure;BME280_temperature;BME280_humidity;BME280_pressure;Samples;Min_cycle;Max_cycle;Signal;HPM_P1;HPM_P2
2023/07/06 00:00:40;;;;;;;;;10.50;10.25;;;;;19.78;43.87;101252.31;5060081;28;45458;-67
2023/07/06 00:03:06;;;;;;;;;15.50;14.00;;;;;19.75;44.00;101247.13;5060072;28;45339;-67
2023/07/06 00:05:31;;;;;;;;;11.00;9.00;;;;;19.74;44.36;101256.06;5059982;28;46201;-67
2023/07/06 00:07:56;;;;;;;;;9.75;8.25;;;;;19.68;44.29;101240.34;5059027;28;45406;-67
2023/07/06 00:10:22;;;;;;;;;8.50;8.25;;;;;19.71;44.09;101240.22;5068436;28;45315;-67
2023/07/06 00:12:48;;;;;;;;;7.00;7.00;;;;;19.68;44.31;101240.34;5059984;28;45585;-67
2023/07/06 00:15:14;;;;;;;;;9.00;8.00;;;;;19.65;44.73;101241.34;5059784;28;45283;-67
2023/07/06 00:17:39;;;;;;;;;10.50;10.25;;;;;19.65;44.42;101249.34;5058364;28;46113;-67
2023/07/06 00:20:08;;;;;;;;;12.25;9.50;;;;;19.63;44.22;101256.56;5058741;28;45274;-67
2023/07/06 00:22:36;;;;;;;;;7.75;6.25;;;;;19.62;44.07;101248.59;5058223;28;45391;-67
2023/07/06 00:25:01;;;;;;;;;10.75;10.75;;;;;19.58;44.70;101252.34;5059433;28;45632;-67
2023/07/06 00:27:28;;;;;;;;;6.50;5.00;;;;;19.56;44.89;101251.53;5058307;28;45224;-67
2023/07/06 00:30:04;;;;;;;;;9.75;8.25;;;;;19.53;44.68;101243.69;5058640;28;45190;-67
2023/07/06 00:32:31;;;;;;;;;8.50;8.50;;;;;19.54;44.90;101264.94;5059602;28;45395;-67
2023/07/06 00:34:58;;;;;;;;;10.00;7.50;;;;;19.49;44.96;101254.47;5059471;28;45970;-67
2023/07/06 00:37:24;;;;;;;;;12.50;8.00;;;;;19.50;44.54;101266.03;5059808;28;45375;-67
2023/07/06 00:39:50;;;;;;;;;9.00;8.00;;;;;19.47;44.57;101255.47;5059579;28;45378;-67
2023/07/06 00:42:19;;;;;;;;;10.25;8.00;;;;;19.43;45.08;101257.44;5059838;28;45311;-67
2023/07/06 00:44:50;;;;;;;;;9.50;7.25;;;;;19.41;44.75;101259.28;5059417;28;45169;-67
2023/07/06 00:47:23;;;;;;;;;9.00;7.00;;;;;19.40;44.89;101257.53;5057971;28;45327;-67
2023/07/06 00:49:49;;;;;;;;;10.50;9.00;;;;;19.38;44.63;101255.88;5059608;28;45434;-67
2023/07/06 00:52:15;;;;;;;;;8.00;7.25;;;;;19.36;45.18;101258.63;5067840;28;45664;-67
2023/07/06 00:54:42;;;;;;;;;9.25;7.50;;;;;19.35;45.29;101256.03;5079743;28;46166;-67
2023/07/06 00:57:11;;;;;;;;;10.50;7.00;;;;;19.32;45.20;101263.22;5079573;28;45413;-67
2023/07/06 00:59:39;;;;;;;;;9.50;7.00;;;;;19.31;45.59;101264.13;5079623;28;45450;-67
2023/07/06 01:02:06;;;;;;;;;10.75;7.75;;;;;19.29;45.58;101262.47;5079462;28;45317;-67
2023/07/06 01:04:31;;;;;;;;;9.50;9.00;;;;;19.27;45.35;101269.66;5079754;27;45414;-67
2023/07/06 01:06:57;;;;;;;;;7.25;6.75;;;;;19.25;45.00;101271.53;5079625;28;45513;-67
2023/07/06 01:09:25;;;;;;;;;9.00;7.00;;;;;19.23;45.43;101265.41;5077207;28;45243;-67
2023/07/06 01:11:51;;;;;;;;;10.25;8.00;;;;;19.22;45.50;101271.66;5062936;28;45443;-67
2023/07/06 01:14:16;;;;;;;;;7.50;5.75;;;;;19.19;45.60;101272.63;5062440;28;46365;-67
2023/07/06 01:16:50;;;;;;;;;7.25;6.25;;;;;19.17;45.29;101278.03;5062548;28;45328;-67
2023/07/06 01:19:25;;;;;;;;;6.50;6.00;;;;;19.14;45.24;101261.31;5061560;28;45358;-67
2023/07/06 01:22:12;;;;;;;;;10.00;8.75;;;;;19.09;45.95;101266.81;5062592;28;45179;-67
2023/07/06 01:25:09;;;;;;;;;8.75;6.25;;;;;19.10;45.59;101275.69;5081442;28;45476;-67
2023/07/06 01:28:10;;;;;;;;;11.75;8.00;;;;;19.06;45.53;101268.78;5081474;28;45470;-67
2023/07/06 01:30:36;;;;;;;;;7.25;7.25;;;;;19.04;45.76;101276.81;5082666;28;45467;-67
2023/07/06 01:33:10;;;;;;;;;7.25;6.25;;;;;19.02;45.77;101277.81;5082775;28;45419;-67
2023/07/06 01:35:56;;;;;;;;;7.00;6.00;;;;;18.99;45.96;101271.69;5082549;28;45999;-67
2023/07/06 01:38:22;;;;;;;;;4.00;4.00;;;;;18.97;45.76;101267.34;5081599;27;45414;-67
2023/07/06 01:40:48;;;;;;;;;6.75;6.00;;;;;18.94;45.90;101260.38;5082690;28;45441;-67
2023/07/06 01:43:14;;;;;;;;;15.75;9.75;;;;;18.92;45.93;101256.88;5065884;27;45412;-67
2023/07/06 01:45:39;;;;;;;;;11.00;9.00;;;;;18.91;46.22;101254.28;5061960;28;46041;-67
2023/07/06 01:48:10;;;;;;;;;11.00;9.00;;;;;18.90;46.07;101255.19;5061041;28;45335;-67
2023/07/06 01:50:38;;;;;;;;;10.00;9.00;;;;;18.88;45.98;101257.91;5062449;28;45311;-67
2023/07/06 01:53:35;;;;;;;;;10.00;7.25;;;;;18.86;46.05;101261.56;5077219;28;45875;-67
2023/07/06 01:56:09;;;;;;;;;6.25;5.50;;;;;18.82;46.18;101261.69;5082294;28;45348;-67
2023/07/06 01:58:34;;;;;;;;;9.50;7.00;;;;;18.81;46.31;101253.75;5082453;28;45272;-67
2023/07/06 02:01:05;;;;;;;;;11.00;9.25;;;;;18.79;46.34;101251.16;5080672;28;45396;-67
2023/07/06 02:03:30;;;;;;;;;8.50;7.25;;;;;18.76;45.95;101250.44;5082767;28;45680;-67
2023/07/06 02:05:56;;;;;;;;;9.00;8.25;;;;;18.73;46.07;101253.19;5081970;28;45412;-67
2023/07/06 02:08:23;;;;;;;;;8.25;7.75;;;;;18.72;46.16;101246.16;5082264;28;45354;-67
2023/07/06 02:10:50;;;;;;;;;8.50;6.50;;;;;18.71;46.48;101253.25;5077601;28;45380;-67
2023/07/06 02:13:16;;;;;;;;;10.50;7.50;;;;;18.65;46.13;101245.53;5061888;28;45527;-67
2023/07/06 02:15:42;;;;;;;;;7.00;5.75;;;;;18.65;46.28;101253.50;5060041;28;46034;-67
2023/07/06 02:18:07;;;;;;;;;5.25;5.25;;;;;18.61;46.53;101243.91;5060480;28;45340;-67
2023/07/06 02:20:34;;;;;;;;;10.00;6.25;;;;;18.59;46.29;101253.75;5061742;28;46365;-67
2023/07/06 02:23:00;;;;;;;;;8.75;7.25;;;;;18.57;46.77;101251.16;5060286;28;45376;-67
2023/07/06 02:25:25;;;;;;;;;8.00;7.00;;;;;18.56;46.39;101251.22;5059906;28;46966;-67
2023/07/06 02:27:50;;;;;;;;;7.50;7.50;;;;;18.53;46.78;101249.56;5060418;28;45253;-68
2023/07/06 02:30:16;;;;;;;;;5.00;5.00;;;;;18.51;46.60;101243.41;5072507;28;45332;-67
2023/07/06 02:32:41;;;;;;;;;6.50;6.00;;;;;18.47;46.69;101237.34;5061772;28;45311;-68
2023/07/06 02:35:09;;;;;;;;;10.00;8.00;;;;;18.48;46.41;101241.75;5061122;28;46094;-67
2023/07/06 02:37:36;;;;;;;;;8.25;6.75;;;;;18.43;47.09;101241.06;5061687;28;45347;-66
2023/07/06 02:40:01;;;;;;;;;10.25;9.00;;;;;18.45;46.67;101248.97;5061377;28;45260;-67
2023/07/06 02:42:27;;;;;;;;;7.00;7.00;;;;;18.43;46.89;101243.72;5060254;28;45237;-66
2023/07/06 02:44:53;;;;;;;;;7.50;5.75;;;;;18.41;46.81;101245.56;5060983;28;46239;-66
2023/07/06 02:47:21;;;;;;;;;10.25;7.25;;;;;18.41;47.09;101252.69;5059833;28;45261;-67
2023/07/06 02:49:47;;;;;;;;;8.00;8.00;;;;;18.40;47.23;101253.59;5061284;28;45335;-66
2023/07/06 02:52:12;;;;;;;;;9.00;6.25;;;;;18.39;47.03;101255.41;5069399;28;45498;-67
2023/07/06 02:54:38;;;;;;;;;9.25;7.75;;;;;18.38;47.29;101255.44;5081188;28;50030;-67
2023/07/06 02:57:03;;;;;;;;;8.75;7.50;;;;;18.36;46.99;101252.84;5081706;27;45413;-67
2023/07/06 02:59:32;;;;;;;;;8.00;8.00;;;;;18.34;47.29;101258.25;5081561;28;45318;-66
2023/07/06 03:02:00;;;;;;;;;11.00;9.00;;;;;18.35;47.16;101257.31;5081477;27;45302;-66
2023/07/06 03:04:27;;;;;;;;;5.50;5.00;;;;;18.34;47.04;101254.72;5081137;28;45332;-68
2023/07/06 03:06:55;;;;;;;;;8.50;7.50;;;;;18.34;47.22;101260.06;5081257;28;45473;-67
2023/07/06 03:09:21;;;;;;;;;6.50;5.00;;;;;18.33;47.18;101255.66;5077676;28;45393;-66
2023/07/06 03:11:47;;;;;;;;;5.50;3.75;;;;;18.32;47.51;101261.88;5060816;28;45312;-66
2023/07/06 03:14:12;;;;;;;;;8.25;6.00;;;;;18.31;47.62;101257.50;5073266;28;46106;-66
2023/07/06 03:16:40;;;;;;;;;9.50;8.25;;;;;18.30;47.50;101255.75;5059222;28;45790;-66
2023/07/06 03:19:08;;;;;;;;;5.00;5.00;;;;;18.26;47.44;101255.00;5061017;28;45362;-67
2023/07/06 03:21:33;;;;;;;;;8.75;8.75;;;;;18.27;47.17;101254.06;5060582;28;45463;-67
2023/07/06 03:23:59;;;;;;;;;7.00;7.00;;;;;18.27;47.48;101256.75;5059272;28;47169;-67
2023/07/06 03:26:24;;;;;;;;;7.25;6.75;;;;;18.27;47.52;101259.41;5060630;28;45416;-68
2023/07/06 03:28:50;;;;;;;;;8.00;6.50;;;;;18.27;47.44;101263.88;5060706;28;45481;-66
2023/07/06 03:31:15;;;;;;;;;7.50;7.00;;;;;18.26;47.57;101260.31;5060074;28;51662;-66
2023/07/06 03:33:41;;;;;;;;;10.25;8.50;;;;;18.23;47.68;101254.28;5060046;28;45580;-67
2023/07/06 03:36:07;;;;;;;;;7.00;7.00;;;;;18.24;47.44;101267.50;5060509;28;45566;-67
2023/07/06 03:38:35;;;;;;;;;9.00;6.75;;;;;18.22;47.73;101263.19;5060715;28;45274;-67
2023/07/06 03:41:03;;;;;;;;;8.00;6.00;;;;;18.19;47.56;101270.34;5060727;28;45415;-67
2023/07/06 03:43:30;;;;;;;;;9.00;6.00;;;;;18.18;47.49;101263.28;5058806;28;46785;-67
2023/07/06 03:45:55;;;;;;;;;7.25;6.50;;;;;18.20;47.70;101265.91;5060068;28;45424;-67
2023/07/06 03:48:21;;;;;;;;;18.00;17.00;;;;;18.17;47.85;101266.84;5060270;28;45301;-67
2023/07/06 03:50:52;;;;;;;;;17.75;14.50;;;;;18.16;47.71;101264.25;5060175;28;45474;-67
2023/07/06 03:53:21;;;;;;;;;11.75;10.25;;;;;18.17;47.94;101263.34;5074064;28;45347;-67
2023/07/06 03:55:51;;;;;;;;;8.00;8.00;;;;;18.13;47.78;101257.25;5060211;28;45263;-67
2023/07/06 03:58:21;;;;;;;;;9.50;7.50;;;;;18.13;47.78;101262.59;5058870;28;45449;-67
2023/07/06 04:00:47;;;;;;;;;9.50;9.00;;;;;18.13;47.93;101264.38;5060079;28;45691;-67
2023/07/06 04:03:13;;;;;;;;;6.75;6.75;;;;;18.11;48.19;101261.78;5058832;28;48125;-67
2023/07/06 04:05:44;;;;;;;;;5.75;5.75;;;;;18.11;48.08;101266.22;5059443;28;45481;-66
2023/07/06 04:08:13;;;;;;;;;7.50;6.25;;;;;18.09;47.81;101260.13;5067680;28;45382;-67
2023/07/06 04:10:40;;;;;;;;;8.50;7.75;;;;;18.07;48.01;101256.63;5075439;28;45418;-67
2023/07/06 04:13:06;;;;;;;;;11.50;10.25;;;;;18.06;47.94;101258.41;5060008;28;45295;-67
2023/07/06 04:15:34;;;;;;;;;8.50;7.50;;;;;18.06;47.97;101266.38;5059561;28;45358;-67
2023/07/06 04:17:59;;;;;;;;;7.00;7.00;;;;;18.05;48.02;101263.78;5060267;28;45445;-66
2023/07/06 04:20:27;;;;;;;;;8.00;6.75;;;;;18.05;48.03;101263.78;5059759;28;45294;-67
2023/07/06 04:22:55;;;;;;;;;8.50;7.25;;;;;18.02;48.12;101265.66;5059773;28;45386;-67
2023/07/06 04:25:31;;;;;;;;;10.50;8.25;;;;;18.01;48.18;101271.00;5059549;28;45363;-67
2023/07/06 04:28:03;;;;;;;;;8.00;8.00;;;;;17.98;48.14;101258.69;5060024;28;45390;-67
2023/07/06 04:30:33;;;;;;;;;9.75;9.75;;;;;17.98;48.30;101260.50;5059555;28;45592;-67
2023/07/06 04:32:59;;;;;;;;;8.00;7.75;;;;;17.97;48.32;101254.31;5059601;28;47104;-67
2023/07/06 04:35:24;;;;;;;;;9.75;7.75;;;;;17.96;48.35;101255.25;5059479;28;45459;-67
2023/07/06 04:37:50;;;;;;;;;10.50;9.25;;;;;17.97;48.13;101262.28;5059899;28;45240;-67
2023/07/06 04:40:18;;;;;;;;;10.25;10.25;;;;;17.94;48.28;101267.72;5059575;28;45190;-67
2023/07/06 04:42:48;;;;;;;;;11.50;9.25;;;;;17.95;48.35;101263.25;5059689;28;45421;-66
2023/07/06 04:45:15;;;;;;;;;12.00;10.25;;;;;17.95;48.56;101263.25;5061508;28;45523;-67
2023/07/06 04:47:41;;;;;;;;;8.75;8.25;;;;;17.95;48.39;101268.56;5063554;28;45248;-67
2023/07/06 04:50:17;;;;;;;;;14.50;10.50;;;;;17.95;48.49;101280.09;5062977;28;45223;-67
2023/07/06 04:52:44;;;;;;;;;9.75;9.75;;;;;17.95;48.23;101271.22;5076635;28;45281;-67
2023/07/06 04:55:10;;;;;;;;;15.50;13.75;;;;;17.93;48.62;101273.94;5083225;28;45232;-66
2023/07/06 04:57:36;;;;;;;;;30.25;28.50;;;;;17.95;48.49;101279.22;5083161;28;45301;-67
2023/07/06 05:00:12;;;;;;;;;12.75;11.25;;;;;17.94;48.68;101278.34;5083278;28;45406;-67
2023/07/06 05:02:38;;;;;;;;;12.25;10.00;;;;;17.94;48.60;101280.16;5083106;28;45377;-66
2023/07/06 05:05:03;;;;;;;;;15.25;12.75;;;;;17.94;48.54;101281.00;5083057;28;45264;-66
2023/07/06 05:07:30;;;;;;;;;7.75;7.25;;;;;17.94;48.47;101283.69;5083288;28;45398;-66
2023/07/06 05:09:56;;;;;;;;;12.00;10.75;;;;;17.92;48.72;101281.97;5074154;28;45379;-67
2023/07/06 05:12:21;;;;;;;;;11.00;9.00;;;;;17.93;48.69;101278.38;5061265;28;46124;-67
2023/07/06 05:14:46;;;;;;;;;14.25;10.75;;;;;17.95;48.81;101281.88;5062768;28;45304;-67
2023/07/06 05:17:12;;;;;;;;;9.25;8.75;;;;;17.96;48.83;101284.50;5061022;28;46705;-69
2023/07/06 05:19:37;;;;;;;;;14.75;11.50;;;;;17.96;49.15;101275.63;5062848;28;45212;-67
2023/07/06 05:22:04;;;;;;;;;12.50;10.75;;;;;17.95;48.71;101271.22;5061112;28;46288;-67
2023/07/06 05:24:30;;;;;;;;;10.75;9.25;;;;;17.97;48.87;101277.38;5062563;28;45220;-66
2023/07/06 05:26:56;;;;;;;;;9.00;8.25;;;;;17.96;48.94;101265.00;5062357;28;45413;-67
2023/07/06 05:29:21;;;;;;;;;12.25;8.75;;;;;17.97;48.74;101272.91;5066688;28;47973;-66
2023/07/06 05:31:48;;;;;;;;;10.75;9.50;;;;;17.99;49.13;101272.88;5062204;28;45482;-67
2023/07/06 05:34:14;;;;;;;;;11.00;10.00;;;;;17.98;48.75;101276.47;5066626;28;45378;-67
2023/07/06 05:36:39;;;;;;;;;11.50;8.25;;;;;18.01;48.95;101274.56;5073073;28;45589;-67
2023/07/06 05:39:06;;;;;;;;;9.25;8.00;;;;;18.01;48.88;101284.31;5062547;28;45425;-67
2023/07/06 05:41:31;;;;;;;;;11.75;9.25;;;;;18.02;48.91;101289.59;5062076;28;46378;-67
2023/07/06 05:43:57;;;;;;;;;11.50;11.50;;;;;18.05;48.97;101293.94;5062293;28;45354;-67
2023/07/06 05:46:23;;;;;;;;;9.25;9.00;;;;;18.06;49.09;101285.00;5060847;28;45207;-67
2023/07/06 05:48:49;;;;;;;;;11.25;10.00;;;;;18.09;48.82;101286.72;5062326;28;45250;-67
2023/07/06 05:51:14;;;;;;;;;13.25;12.00;;;;;18.08;49.10;101285.81;5063183;28;45971;-67
2023/07/06 05:53:40;;;;;;;;;11.75;9.50;;;;;18.10;48.90;101288.41;5082871;28;45113;-67
2023/07/06 05:56:05;;;;;;;;;12.00;9.00;;;;;18.10;48.90;101288.41;5065791;28;45274;-67
2023/07/06 05:58:30;;;;;;;;;9.00;9.00;;;;;18.15;49.21;101289.13;5062093;28;48023;-67
2023/07/06 06:00:56;;;;;;;;;9.00;6.00;;;;;18.16;49.01;101293.50;5061828;28;45230;-67
2023/07/06 06:03:22;;;;;;;;;6.25;6.25;;;;;18.18;49.00;101292.53;5065362;28;45281;-67
2023/07/06 06:05:50;;;;;;;;;8.75;7.75;;;;;18.19;48.87;101288.94;5061993;28;45607;-67
2023/07/06 06:08:18;;;;;;;;;7.00;7.00;;;;;18.21;48.79;101290.69;5064766;28;45252;-67
2023/07/06 06:10:43;;;;;;;;;11.50;8.25;;;;;18.24;49.24;101295.88;5077275;28;48005;-67
2023/07/06 06:13:10;;;;;;;;;6.00;5.50;;;;;18.25;49.09;101298.50;5061877;28;45195;-67
2023/07/06 06:15:36;;;;;;;;;8.50;6.75;;;;;18.28;48.74;101302.84;5061709;28;45231;-67
2023/07/06 06:18:03;;;;;;;;;7.75;6.00;;;;;18.30;48.63;101303.63;5061999;28;45435;-67
2023/07/06 06:20:28;;;;;;;;;10.25;7.00;;;;;18.32;48.69;101307.97;5061733;28;46066;-67
2023/07/06 06:22:54;;;;;;;;;8.25;4.75;;;;;18.34;49.00;101303.47;5061389;28;45381;-67
2023/07/06 06:25:19;;;;;;;;;6.25;6.00;;;;;18.36;48.97;101308.72;5061596;28;45384;-67
2023/07/06 06:27:46;;;;;;;;;6.75;6.00;;;;;18.34;48.83;101307.94;5060724;28;45613;-67
2023/07/06 06:30:14;;;;;;;;;7.00;4.00;;;;;18.41;48.95;101309.41;5061486;28;45550;-67
2023/07/06 06:32:40;;;;;;;;;5.00;4.50;;;;;18.45;48.79;101321.69;5061676;28;45236;-67
2023/07/06 06:35:20;;;;;;;;;6.00;5.00;;;;;18.48;48.71;101316.25;5060170;28;45381;-67
2023/07/06 06:37:46;;;;;;;;;5.00;3.25;;;;;18.49;48.41;101319.78;5060269;28;45375;-67
2023/07/06 06:40:12;;;;;;;;;7.00;5.00;;;;;18.54;48.47;101322.25;5061154;28;45222;-67
2023/07/06 06:42:39;;;;;;;;;5.75;4.50;;;;;18.56;48.79;101318.59;5060301;28;45249;-67
2023/07/06 06:45:05;;;;;;;;;7.50;5.00;;;;;18.59;48.76;101322.94;5061090;28;45246;-67
2023/07/06 06:47:32;;;;;;;;;3.25;3.25;;;;;18.61;48.74;101316.63;5067726;28;45407;-67
2023/07/06 06:49:58;;;;;;;;;4.00;4.00;;;;;18.65;48.49;101326.25;5061144;28;45309;-67
2023/07/06 06:52:23;;;;;;;;;6.00;4.50;;;;;18.68;48.67;101322.59;5071926;28;45430;-67
2023/07/06 06:54:51;;;;;;;;;4.00;4.00;;;;;18.72;48.28;101321.56;5081417;28;45261;-67
2023/07/06 06:57:16;;;;;;;;;5.00;5.00;;;;;18.73;48.42;101323.28;5081748;27;45280;-67
2023/07/06 06:59:43;;;;;;;;;7.50;5.00;;;;;18.75;48.30;101324.06;5081193;28;45194;-66
2023/07/06 07:02:09;;;;;;;;;5.25;4.50;;;;;18.81;48.31;101329.16;5081410;28;45287;-67
2023/07/06 07:04:34;;;;;;;;;5.75;4.00;;;;;18.83;48.62;101329.13;5081263;28;45306;-67
2023/07/06 07:07:03;;;;;;;;;3.00;3.00;;;;;18.87;48.23;101329.84;5080331;28;45208;-66
2023/07/06 07:09:29;;;;;;;;;4.00;2.25;;;;;18.88;48.20;101329.81;5076147;28;45248;-67
2023/07/06 07:11:54;;;;;;;;;5.75;4.00;;;;;18.92;48.58;101328.78;5060872;28;45360;-67
2023/07/06 07:14:19;;;;;;;;;2.75;2.75;;;;;18.94;48.38;101328.72;5060927;28;45505;-67
2023/07/06 07:16:45;;;;;;;;;4.00;3.25;;;;;18.98;48.14;101328.53;5060782;28;45432;-67
2023/07/06 07:19:10;;;;;;;;;4.00;3.75;;;;;19.01;48.07;101332.88;5060656;28;45436;-66
2023/07/06 07:21:35;;;;;;;;;5.50;4.00;;;;;19.02;48.01;101326.63;5061003;28;45379;-67
2023/07/06 07:24:01;;;;;;;;;4.75;4.75;;;;;19.07;48.03;101324.63;5060798;28;45426;-67
2023/07/06 07:26:27;;;;;;;;;5.75;4.50;;;;;19.10;47.95;101324.50;5060538;28;45498;-67
2023/07/06 07:28:53;;;;;;;;;4.50;4.50;;;;;19.11;48.26;101325.38;5060705;28;45379;-66
2023/07/06 07:31:21;;;;;;;;;4.50;3.00;;;;;19.15;48.11;101325.19;5060495;28;45240;-66
2023/07/06 07:33:47;;;;;;;;;4.75;4.75;;;;;19.20;47.83;101324.16;5060660;28;45486;-66
2023/07/06 07:36:16;;;;;;;;;6.00;5.75;;;;;19.21;47.74;101326.72;5060511;28;45273;-67
2023/07/06 07:38:42;;;;;;;;;7.25;4.00;;;;;19.24;48.05;101325.75;5060499;28;46316;-67
2023/07/06 07:41:09;;;;;;;;;4.00;4.00;;;;;19.28;48.02;101325.56;5060504;28;45243;-66
2023/07/06 07:43:41;;;;;;;;;5.00;4.00;;;;;19.31;48.27;101319.22;5060531;28;45260;-66
2023/07/06 07:46:09;;;;;;;;;4.50;4.50;;;;;19.36;47.88;101325.25;5060092;28;45402;-66
2023/07/06 07:48:38;;;;;;;;;4.50;4.50;;;;;19.40;47.91;101326.84;5060091;28;47445;-66
2023/07/06 07:51:08;;;;;;;;;4.25;4.25;;;;;19.44;47.70;101322.25;5060382;28;45469;-66
2023/07/06 07:53:36;;;;;;;;;3.00;2.75;;;;;19.48;47.87;101321.16;5067729;28;45226;-66
2023/07/06 07:56:04;;;;;;;;;8.25;4.25;;;;;19.52;47.53;101319.25;5078987;28;45427;-66
2023/07/06 07:58:30;;;;;;;;;3.50;3.50;;;;;19.55;47.42;101321.81;5080543;27;45362;-66
2023/07/06 08:00:56;;;;;;;;;5.00;4.50;;;;;19.59;47.43;101323.41;5078824;28;45337;-66
2023/07/06 08:03:23;;;;;;;;;4.00;3.50;;;;;19.63;47.53;101317.88;5080710;28;45466;-66
2023/07/06 08:05:51;;;;;;;;;3.50;3.50;;;;;19.68;47.56;101323.00;5080357;28;45406;-67
2023/07/06 08:08:16;;;;;;;;;7.75;4.00;;;;;19.71;47.37;101319.31;5080268;28;46399;-66
2023/07/06 08:10:41;;;;;;;;;4.25;4.25;;;;;19.75;47.43;101319.13;5065338;28;45249;-67
2023/07/06 08:13:09;;;;;;;;;4.50;4.50;;;;;19.78;47.40;101318.97;5060133;28;45240;-66
2023/07/06 08:15:37;;;;;;;;;3.25;3.00;;;;;19.82;47.61;101311.72;5059595;28;45995;-67
2023/07/06 08:18:03;;;;;;;;;3.00;3.00;;;;;19.86;47.08;101312.47;5059683;28;46066;-67
2023/07/06 08:20:33;;;;;;;;;3.25;3.25;;;;;19.87;47.14;101299.06;5059921;28;45178;-66
2023/07/06 08:23:01;;;;;;;;;4.00;4.00;;;;;19.93;47.13;101308.63;5059844;28;45338;-67
2023/07/06 08:25:28;;;;;;;;;3.25;2.75;;;;;19.97;47.11;101304.88;5059479;28;45515;-66
2023/07/06 08:27:57;;;;;;;;;3.50;3.50;;;;;20.02;46.86;101302.00;5058546;28;47591;-66
2023/07/06 08:30:22;;;;;;;;;2.75;2.00;;;;;20.04;47.37;101305.47;5059530;28;45424;-66
2023/07/06 08:32:49;;;;;;;;;3.25;3.25;;;;;20.09;46.98;101300.81;5058728;28;45336;-67
2023/07/06 08:35:19;;;;;;;;;4.00;4.00;;;;;20.12;46.94;101300.66;5059592;28;45347;-67
2023/07/06 08:37:45;;;;;;;;;4.25;3.50;;;;;20.18;46.91;101304.84;5059752;28;45370;-67
2023/07/06 08:40:14;;;;;;;;;4.00;4.00;;;;;20.22;46.94;101303.78;5059484;28;45285;-66
2023/07/06 08:42:43;;;;;;;;;3.75;2.25;;;;;20.24;47.18;101297.41;5058491;28;45382;-66
2023/07/06 08:45:16;;;;;;;;;3.75;3.75;;;;;20.30;47.33;101296.25;5059148;28;45474;-66
2023/07/06 08:47:42;;;;;;;;;4.75;1.25;;;;;20.34;47.17;101297.88;5058308;28;48104;-66
2023/07/06 08:50:11;;;;;;;;;4.25;4.00;;;;;20.37;47.06;101300.38;5059512;28;45142;-66
2023/07/06 08:52:37;;;;;;;;;2.50;2.00;;;;;20.41;46.80;101298.44;5071386;28;45429;-66
2023/07/06 08:55:12;;;;;;;;;3.00;3.00;;;;;20.44;46.87;101298.31;5059820;28;45541;-66
2023/07/06 08:57:38;;;;;;;;;5.00;4.00;;;;;20.49;46.88;101300.75;5059331;28;47256;-66
2023/07/06 09:00:14;;;;;;;;;4.75;3.50;;;;;20.52;47.05;101292.59;5059227;28;45347;-66
2023/07/06 09:02:40;;;;;;;;;5.00;4.00;;;;;20.59;46.50;101297.59;5059521;28;45297;-66
2023/07/06 09:05:12;;;;;;;;;4.25;3.25;;;;;20.63;46.98;101300.97;5059301;28;45494;-66
2023/07/06 09:07:42;;;;;;;;;7.25;3.25;;;;;20.68;46.69;101296.28;5059230;28;46130;-66
2023/07/06 09:10:23;;;;;;;;;1.00;1.00;;;;;20.74;46.91;101300.47;5067264;28;45463;-66
2023/07/06 09:12:48;;;;;;;;;4.25;4.25;;;;;20.76;46.49;101302.13;5059347;28;45383;-66
2023/07/06 09:15:16;;;;;;;;;4.50;2.75;;;;;20.82;46.69;101308.09;5058981;28;45332;-66
2023/07/06 09:17:47;;;;;;;;;3.25;3.25;;;;;20.87;46.61;101295.44;5059120;28;45240;-66
2023/07/06 09:20:14;;;;;;;;;2.50;2.50;;;;;20.91;46.01;101294.31;5059134;28;45370;-66
2023/07/06 09:22:41;;;;;;;;;2.00;2.00;;;;;20.95;45.89;101298.56;5059186;28;45362;-66
2023/07/06 09:25:17;;;;;;;;;3.00;3.00;;;;;21.00;46.46;101301.88;5057595;28;45560;-66
2023/07/06 09:27:48;;;;;;;;;4.00;2.50;;;;;21.05;46.10;101297.16;5078397;28;45289;-66
2023/07/06 09:30:36;;;;;;;;;3.50;2.25;;;;;21.11;46.00;101296.00;5080050;28;45395;-66
2023/07/06 09:33:25;;;;;;;;;2.75;2.75;;;;;21.16;45.95;101298.47;5083029;27;45379;-66
2023/07/06 09:35:52;;;;;;;;;3.75;2.50;;;;;21.21;45.54;101299.09;5073106;28;45252;-66
2023/07/06 09:38:19;;;;;;;;;2.25;2.25;;;;;21.24;45.91;101296.25;5062307;28;46238;-66
2023/07/06 09:40:46;;;;;;;;;3.50;2.25;;;;;21.28;45.65;101292.47;5062607;28;45351;-66
2023/07/06 09:43:37;;;;;;;;;1.00;1.00;;;;;21.30;45.70;101290.59;5062298;28;45247;-66
2023/07/06 09:46:03;;;;;;;;;3.00;3.00;;;;;21.39;45.68;101295.47;5060785;28;45517;-66
2023/07/06 09:48:37;;;;;;;;;4.50;4.00;;;;;21.46;45.73;101293.38;5062102;28;45346;-66
2023/07/06 09:51:11;;;;;;;;;2.00;2.00;;;;;21.53;45.42;101293.91;5060929;28;45356;-66
2023/07/06 09:53:59;;;;;;;;;2.00;2.00;;;;;21.58;45.28;101287.44;5070035;28;45489;-66
2023/07/06 09:56:24;;;;;;;;;3.00;3.00;;;;;21.64;45.54;101286.22;5082226;28;45316;-65
2023/07/06 09:58:52;;;;;;;;;3.00;3.00;;;;;21.74;45.31;101292.81;5082284;28;45411;-66
2023/07/06 10:02:00;;;;;;;;;4.75;3.50;;;;;21.84;44.87;101284.31;5082238;28;45375;-65
2023/07/06 10:04:37;;;;;;;;;6.00;4.00;;;;;21.91;44.98;101283.03;5098150;27;45235;-65
2023/07/06 10:07:10;;;;;;;;;3.25;3.00;;;;;22.00;44.87;101292.38;5082262;28;45545;-65
2023/07/06 10:09:47;;;;;;;;;5.00;3.50;;;;;22.07;45.08;101283.97;5080716;28;46259;-65
2023/07/06 10:12:12;;;;;;;;;5.00;5.00;;;;;22.17;44.74;101280.78;5082177;28;45287;-65
2023/07/06 10:14:48;;;;;;;;;2.00;2.00;;;;;22.26;44.52;101280.25;5082572;28;45298;-65
2023/07/06 10:18:13;;;;;;;;;3.25;3.25;;;;;22.36;44.23;101280.63;5082052;28;45371;-65
2023/07/06 10:20:53;;;;;;;;;3.00;2.00;;;;;22.43;44.14;101282.03;5026174;28;47306;-65
2023/07/06 10:23:23;;;;;;;;;7.25;4.00;;;;;22.50;43.72;101280.75;5038896;28;45381;-65
2023/07/06 10:26:13;;;;;;;;;3.00;3.00;;;;;22.58;43.67;101276.78;5060578;28;45357;-65
2023/07/06 10:28:46;;;;;;;;;6.50;3.25;;;;;22.62;43.87;101286.38;5081895;27;45398;-65
2023/07/06 10:31:16;;;;;;;;;3.75;3.75;;;;;22.66;44.01;101280.75;5081748;28;45245;-65
2023/07/06 10:33:59;;;;;;;;;4.50;4.00;;;;;22.75;43.59;101289.22;5081602;28;45453;-65
2023/07/06 10:36:33;;;;;;;;;2.00;2.00;;;;;22.81;43.60;101283.50;5082013;28;45217;-65
2023/07/06 10:39:03;;;;;;;;;5.00;4.00;;;;;22.90;43.66;101280.28;5081938;27;45401;-65
2023/07/06 10:41:31;;;;;;;;;3.75;2.25;;;;;23.04;43.83;101279.50;5081346;27;45395;-64
2023/07/06 10:44:01;;;;;;;;;3.50;3.00;;;;;23.19;43.64;101284.00;5081783;28;45239;-66
2023/07/06 10:46:32;;;;;;;;;3.75;3.75;;;;;23.41;43.72;101281.84;5066460;28;45299;-65
2023/07/06 10:49:14;;;;;;;;;3.25;3.25;;;;;23.61;43.51;101281.53;5081788;28;45449;-64
2023/07/06 10:51:51;;;;;;;;;3.50;3.50;;;;;23.83;43.40;101275.69;5073091;28;46225;-64
2023/07/06 10:54:23;;;;;;;;;6.50;6.25;;;;;24.05;43.03;101282.44;5080149;28;45319;-64
2023/07/06 10:57:10;;;;;;;;;3.00;3.00;;;;;24.30;42.95;101280.88;5081592;27;45338;-64
2023/07/06 10:59:41;;;;;;;;;5.25;4.00;;;;;24.53;43.23;101267.78;5081417;28;45430;-64
2023/07/06 11:02:20;;;;;;;;;5.75;5.75;;;;;24.80;43.29;101267.84;5081224;28;45462;-64
2023/07/06 11:05:07;;;;;;;;;5.25;3.00;;;;;25.10;43.10;101269.47;5081066;28;45323;-64
2023/07/06 11:07:43;;;;;;;;;4.00;4.00;;;;;25.45;43.32;101266.22;5081457;28;45173;-64
2023/07/06 11:10:17;;;;;;;;;3.75;3.00;;;;;25.81;43.01;101270.03;5070724;28;45261;-64
2023/07/06 11:12:58;;;;;;;;;2.75;2.75;;;;;26.17;42.85;101260.28;5060849;28;45355;-64
2023/07/06 11:15:35;;;;;;;;;5.25;4.25;;;;;26.55;43.22;101255.78;5060601;28;45346;-64
2023/07/06 11:18:18;;;;;;;;;4.00;4.00;;;;;26.93;42.58;101263.72;5061054;28;45319;-65
2023/07/06 11:20:51;;;;;;;;;4.25;4.00;;;;;27.31;42.82;101260.91;5059171;28;45451;-64
2023/07/06 11:23:25;;;;;;;;;6.00;4.00;;;;;27.67;42.31;101268.03;5059387;28;47342;-64
2023/07/06 11:25:51;;;;;;;;;4.50;4.00;;;;;27.99;41.66;101264.59;5065853;28;45473;-64
2023/07/06 11:28:23;;;;;;;;;4.75;3.75;;;;;28.30;41.18;101264.00;5079734;28;45395;-64
2023/07/06 11:31:05;;;;;;;;;2.25;1.00;;;;;28.62;41.60;101261.34;5060679;28;45216;-64